• Join FlightAware (Why Join?)
  • Login
  • US Flag GB Flag 
06:44 EDT


 

Airport Tracker/Info


-or-


 

Live Flight TrackerFlight Track Log ✈ EJM77 ✈ 30-Jun-2013 ✈ KASE - KMSP

Flight Track Log - Related Links

Times and Time Zones

All times are in EDT time to prevent confusion due to time zone crossing. See the EJM77 flight status page for this flight to view local times or setup timezone preferences in your user account.

Time Position Orientation Groundspeed Altitude Reporting Facility
EDT Latitude Longitude Course Direction KTS MPH feet Rate Location/Type
15:29 39.3092 -106.9361 283° West 227 261 11,200  Level Denver Center
15:30 39.3253 -107.0192 284° West 235 270 13,800 2,220 Climbing Denver Center
15:31 39.3525 -107.0989 294° West 234 269 15,900 2,040 Climbing Denver Center
15:32 39.3906 -107.1739 303° West 250 288 18,100 2,280 Climbing Denver Center
15:33 39.4158 -107.2808 287° West 263 303 20,700 1,920 Climbing Denver Center
15:34 39.4957 -107.6260 283° West  Level FlightAware Approximate
15:34 39.4675 -107.3328 322° Northwest 278 320 22,100  Level Denver Center
15:35 39.5294 -107.2503 46° Northeast 293 337 24,900 1,980 Climbing Denver Center
15:36 39.5744 -107.1614 57° Northeast 305 351 26,200 1,380 Climbing Denver Center
15:37 39.6203 -107.0683 57° Northeast 317 365 27,800 1,020 Climbing Denver Center
15:38 39.6814 -106.9453 57° Northeast 361 415 28,400 840 Climbing Denver Center
15:39 39.7381 -106.8294 58° Northeast 399 459 29,600 1,140 Climbing Denver Center
15:40 39.7981 -106.7069 57° Northeast 397 457 30,800 1,680 Climbing Denver Center
15:41 39.8592 -106.5817 58° Northeast 406 467 33,100 2,100 Climbing Denver Center
15:42 39.9225 -106.4500 59° Northeast 364 419 35,200 1,560 Climbing Denver Center
15:43 39.9263 -106.4380 59° Northeast  Level Estimated
15:44 39.9772 -106.3361 58° Northeast 369 425 36,700  Level Denver Center
15:45 40.0436 -106.1978 58° Northeast 374 430 37,800 660 Climbing Denver Center
15:47 40.1467 -105.9817 58° Northeast 390 449 38,800 600 Climbing Denver Center
15:48 40.2203 -105.8275 58° Northeast 414 476 39,700 840 Climbing Denver Center
15:49 40.2783 -105.7003 59° Northeast 411 473 40,600 600 Climbing Denver Center
15:50 40.3514 -105.5478 58° Northeast 412 474 41,000 180 Climbing Denver Center
15:51 40.4128 -105.4158 59° Northeast 419 482 41,000  Level Denver Center
15:52 40.4761 -105.2797 59° Northeast 432 497 41,000  Level Denver Center
15:53 40.5400 -105.1428 58° Northeast 437 503 41,000  Level Denver Center
15:54 40.6036 -105.0078 58° Northeast 433 498 41,000  Level Denver Center
15:55 40.6664 -104.8708 59° Northeast 435 501 41,000  Level Denver Center
15:56 40.7169 -104.7586 59° Northeast 442 509 41,000  Level Denver Center
15:57 40.7906 -104.5956 59° Northeast 432 497 41,000  Level Denver Center
15:58 40.8658 -104.4303 59° Northeast 437 503 41,000  Level Denver Center
15:59 40.9278 -104.2925 59° Northeast 437 503 41,000  Level Denver Center
16:00 40.9892 -104.1556 59° Northeast 433 498 41,000  Level Denver Center
16:01 41.0511 -104.0161 59° Northeast 428 493 41,000  Level Denver Center
16:02 41.1081 -103.8867 60° Northeast 425 489 41,000  Level Denver Center
16:03 41.1750 -103.7353 60° Northeast 427 491 41,000  Level Denver Center
16:04 41.2322 -103.6067 59° Northeast 425 489 41,000  Level Denver Center
16:05 41.2989 -103.4531 60° Northeast 429 494 41,000  Level Denver Center
16:06 41.3558 -103.3225 60° Northeast 429 494 41,000  Level Denver Center
16:07 41.4222 -103.1708 60° Northeast 426 490 41,000  Level Denver Center
16:08 41.4781 -103.0406 60° Northeast 424 488 41,000  Level Denver Center
16:09 41.5442 -102.8889 60° Northeast 425 489 41,000  Level Denver Center
16:10 41.5994 -102.7592 60° Northeast 422 486 41,000  Level Denver Center
16:11 41.6631 -102.6094 60° Northeast 417 480 41,000  Level Denver Center
16:12 41.7164 -102.4858 60° Northeast 419 482 41,000  Level Denver Center
16:14 41.7831 -102.3289 60° Northeast 418 481 41,000  Level Denver Center
16:15 41.8367 -102.2031 60° Northeast 421 484 41,000  Level Denver Center
16:16 41.9089 -102.0286 61° Northeast 419 482 41,000  Level Denver Center
16:17 41.9633 -101.8981 61° Northeast 416 479 41,000  Level Denver Center
16:18 42.0275 -101.7439 61° Northeast 421 484 41,000  Level Denver Center
16:19 42.0817 -101.6117 61° Northeast 420 483 41,000  Level Denver Center
16:20 42.1442 -101.4592 61° Northeast 417 480 41,000  Level Denver Center
16:21 42.1983 -101.3267 61° Northeast 419 482 41,000  Level Denver Center
16:22 42.2594 -101.1756 61° Northeast 412 474 41,000  Level Denver Center
16:23 42.3128 -101.0433 61° Northeast 414 476 41,000  Level Denver Center
16:24 42.3658 -100.9128 61° Northeast 414 476 41,000  Level Denver Center
16:25 42.4283 -100.7567 61° Northeast 419 482 41,000  Level Denver Center
16:26 42.4719 -100.6464 62° Northeast 419 482 41,000  Level Denver Center
16:27 42.5333 -100.4939 61° Northeast 415 478 41,000  Level Minneapolis Center
16:28 42.5947 -100.3356 62° Northeast 420 483 41,000  Level Denver Center
16:29 42.6550 -100.1819 62° Northeast 416 479 41,000  Level Denver Center
16:30 42.7069 -100.0506 62° Northeast 411 473 41,000  Level Minneapolis Center
16:31 42.7611 -99.9117 62° Northeast 412 474 41,000  Level Minneapolis Center
16:32 42.8147 -99.7728 62° Northeast 414 476 41,000  Level Minneapolis Center
16:33 42.8689 -99.6328 62° Northeast 416 479 41,000  Level Minneapolis Center
16:34 42.9331 -99.4661 62° Northeast 415 478 41,000  Level Minneapolis Center
16:35 42.9864 -99.3219 63° Northeast 419 482 41,000  Level Minneapolis Center
16:36 43.0392 -99.1828 63° Northeast 416 479 41,000  Level Minneapolis Center
16:37 43.0936 -99.0408 62° Northeast 419 482 41,000  Level Minneapolis Center
16:38 43.1456 -98.9008 63° Northeast 420 483 41,000  Level Minneapolis Center
16:40 43.1983 -98.7589 63° Northeast 420 483 41,000  Level Minneapolis Center
16:41 43.2628 -98.5864 63° Northeast 424 488 41,000  Level Minneapolis Center
16:42 43.3167 -98.4417 63° Northeast 426 490 41,000  Level Minneapolis Center
16:43 43.3706 -98.2950 63° Northeast 431 496 41,000  Level Minneapolis Center
16:44 43.4233 -98.1497 63° Northeast 428 493 41,000  Level Minneapolis Center
16:45 43.4767 -98.0028 63° Northeast 430 495 41,000  Level Minneapolis Center
16:46 43.5303 -97.8569 63° Northeast 428 493 41,000  Level Minneapolis Center
16:47 43.5936 -97.6797 64° Northeast 429 494 41,000  Level Minneapolis Center
16:48 43.6464 -97.5319 64° Northeast 430 495 41,000  Level Minneapolis Center
16:49 43.6983 -97.3858 64° Northeast 427 491 41,000  Level Minneapolis Center
16:51 43.8011 -97.0933 64° Northeast 426 490 41,000  Level Minneapolis Center
16:52 43.8531 -96.9458 64° Northeast 427 491 41,000 -360 Level Minneapolis Center
16:53 43.9150 -96.7678 64° Northeast 430 495 40,300 -720 Descending Minneapolis Center
16:54 43.9669 -96.6167 64° Northeast 434 499 39,600 -720 Descending Minneapolis Center
16:55 44.0183 -96.4686 64° Northeast 431 496 38,900 -600 Descending Minneapolis Center
16:56 44.0683 -96.3206 65° Northeast 429 494 38,400 -660 Descending Minneapolis Center
16:57 44.1167 -96.1756 65° Northeast 428 493 37,600 -960 Descending Minneapolis Center
16:58 44.1681 -96.0006 68° East 424 488 36,500 -1,200 Descending Minneapolis Center
16:59 44.2122 -95.8522 67° East 421 484 35,200 -1,920 Descending Minneapolis Center
17:01 44.2684 -95.6587 68° East  Level FlightAware Approximate
17:03 44.3686 -95.3144 69° East 418 481 27,900  Level Minneapolis Center
17:04 44.4117 -95.1669 68° East 414 476 25,700 -2,160 Descending Minneapolis Center
17:05 44.4533 -95.0197 68° East 411 473 23,400 -2,220 Descending Minneapolis Center
17:06 44.4950 -94.8733 68° East 408 470 21,200 -2,100 Descending Minneapolis Center
17:07 44.5364 -94.7281 68° East 404 465 19,100 -2,040 Descending Minneapolis Center
17:08 44.5501 -94.6495 69° East  Level FlightAware Approximate
17:08 44.5767 -94.5806 69° East 396 456 17,100  Level Minneapolis Center
17:09 44.6156 -94.4428 68° East 378 435 15,100 -2,040 Descending Minneapolis Center
17:10 44.6594 -94.2814 69° East 371 427 12,900 -1,980 Descending Minneapolis Center
17:11 44.6944 -94.1547 69° East 345 397 11,100 -900 Descending Minneapolis Center
17:12 44.7239 -94.0222 73° East 354 407 11,100 -60 Level Minneapolis Center
17:13 44.7542 -93.8867 72° East 364 419 11,000 -60 Descending Minneapolis Center
17:14 44.7847 -93.7519 72° East 363 418 11,000  Level Minneapolis Center
17:15 44.8136 -93.6183 73° East 359 413 11,000 -780 Level Minneapolis Center
17:16 44.8425 -93.4856 73° East 279 321 9,400 -1,500 Descending Minneapolis Center
17:17 44.8208 -93.3831 107° East 275 316 7,900 -720 Descending Minneapolis Center
17:18 44.7919 -93.2994 116° Southeast 241 277 8,000  Climbing Minneapolis Center
17:19 44.7608 -93.2117 117° Southeast 239 275 7,900  Descending Minneapolis Center
17:20 44.7311 -93.1297 117° Southeast 230 265 8,000 -240 Climbing Minneapolis Center
17:21 44.7008 -93.0617 122° Southeast 208 239 7,500 -1,260 Descending Minneapolis Center
17:22 44.7153 -93.0058 70° East 188 216 5,500 -1,500 Descending Minneapolis Center
17:23 44.7628 -93.0244 344° North 197 227 4,500 -1,140 Descending Minneapolis Center
17:24 44.8178 -93.0747 327° Northwest 200 230 3,200 -1,080 Descending Minneapolis Center
17:25 44.8431 -93.1311 302° West 170 196 2,300 -900 Descending Minneapolis Center
17:28 44.8667 -93.2167 331° Northwest  Level FlightAware Approximate
17:35 44.8820 -93.2218 331° Northwest  Level Estimated
17:36 44.8820 -93.2218 331° Northwest  Level Estimated